Time,TemperatureF,DewpointF,PressureIn,WindDirection,WindDirectionDegrees,WindSpeedMPH,WindSpeedGustMPH,Humidity,HourlyPrecipIn,Conditions,Clouds,dailyrainin,SoftwareType,DateUTC
2013-04-27 07:15:00,70.4,62.8,30.15,ENE,68,0.0,2.0,77,0.00,,,0.00,VWS V14.01,2013-04-27 11:15:00,
2013-04-27 07:43:00,70.8,63.2,30.17,ENE,63,0.0,0.0,77,0.00,,,0.00,VWS V14.01,2013-04-27 11:43:00,
2013-04-27 07:48:00,71.0,63.4,30.17,ENE,63,0.0,1.0,77,0.00,,,0.00,VWS V14.01,2013-04-27 11:48:00,
2013-04-27 07:53:00,71.3,63.7,30.17,ENE,63,0.0,1.0,77,0.00,,,0.00,VWS V14.01,2013-04-27 11:53:00,
2013-04-27 07:58:00,71.8,63.8,30.16,ENE,61,0.0,1.0,76,0.00,,,0.00,VWS V14.01,2013-04-27 11:58:00,
2013-04-27 08:03:00,72.6,64.2,30.17,ENE,59,0.0,3.0,75,0.00,,,0.00,VWS V14.01,2013-04-27 12:03:00,
2013-04-27 08:08:00,73.5,64.3,30.16,ENE,59,0.0,3.0,73,0.00,,,0.00,VWS V14.01,2013-04-27 12:08:00,
2013-04-27 08:13:00,74.3,64.3,30.16,NE,48,1.0,4.0,71,0.00,,,0.00,VWS V14.01,2013-04-27 12:13:00,
2013-04-27 08:18:00,74.7,64.3,30.17,ENE,64,0.0,4.0,70,0.00,,,0.00,VWS V14.01,2013-04-27 12:18:00,
2013-04-27 08:23:00,75.3,64.4,30.17,ENE,66,5.0,5.0,69,0.00,,,0.00,VWS V14.01,2013-04-27 12:23:00,
2013-04-27 08:28:00,75.9,65.0,30.17,NNE,17,1.0,5.0,69,0.00,,,0.00,VWS V14.01,2013-04-27 12:28:00,
2013-04-27 08:33:00,76.6,64.8,30.17,ENE,58,0.0,3.0,67,0.00,,,0.00,VWS V14.01,2013-04-27 12:33:00,
2013-04-27 08:38:00,77.0,63.9,30.17,NE,46,5.0,5.0,64,0.00,,,0.00,VWS V14.01,2013-04-27 12:38:00,
2013-04-27 08:43:00,77.0,63.9,30.16,NE,41,4.0,10.0,64,0.00,,,0.00,VWS V14.01,2013-04-27 12:43:00,
2013-04-27 08:48:00,76.7,64.1,30.17,NE,56,3.0,4.0,65,0.00,,,0.00,VWS V14.01,2013-04-27 12:48:00,
2013-04-27 08:53:00,77.1,64.0,30.16,NE,42,5.0,6.0,64,0.00,,,0.00,VWS V14.01,2013-04-27 12:53:00,
2013-04-27 08:58:00,77.2,64.1,30.16,ESE,119,0.0,6.0,64,0.00,,,0.00,VWS V14.01,2013-04-27 12:58:00,
2013-04-27 09:03:00,77.6,63.6,30.16,NNE,29,1.0,9.0,62,0.00,,,0.00,VWS V14.01,2013-04-27 13:03:00,
2013-04-27 09:08:00,78.0,63.5,30.16,East,91,3.0,9.0,61,0.00,,,0.00,VWS V14.01,2013-04-27 13:08:00,
2013-04-27 09:13:00,78.4,63.4,30.16,NE,55,1.0,9.0,60,0.00,,,0.00,VWS V14.01,2013-04-27 13:13:00,
2013-04-27 09:18:00,78.8,63.8,30.16,ENE,71,1.0,7.0,60,0.00,,,0.00,VWS V14.01,2013-04-27 13:18:00,
2013-04-27 09:23:00,79.2,63.2,30.16,ENE,65,3.0,9.0,58,0.00,,,0.00,VWS V14.01,2013-04-27 13:23:00,
2013-04-27 09:28:00,79.4,62.9,30.16,SE,138,3.0,9.0,57,0.00,,,0.00,VWS V14.01,2013-04-27 13:28:00,
2013-04-27 09:33:00,79.5,61.9,30.16,ENE,77,5.0,8.0,55,0.00,,,0.00,VWS V14.01,2013-04-27 13:33:00,
2013-04-27 09:38:00,79.4,61.8,30.17,ENE,63,2.0,9.0,55,0.00,,,0.00,VWS V14.01,2013-04-27 13:38:00,
2013-04-27 09:43:00,79.4,60.8,30.17,East,87,3.0,10.0,53,0.00,,,0.00,VWS V14.01,2013-04-27 13:43:00,
2013-04-27 09:48:00,79.3,61.2,30.17,NNE,33,5.0,10.0,54,0.00,,,0.00,VWS V14.01,2013-04-27 13:48:00,
2013-04-27 09:53:00,79.2,61.7,30.17,ENE,76,2.0,10.0,55,0.00,,,0.00,VWS V14.01,2013-04-27 13:53:00,
2013-04-27 09:58:00,79.6,61.5,30.17,ENE,63,7.0,13.0,54,0.00,,,0.00,VWS V14.01,2013-04-27 13:58:00,
2013-04-27 10:03:00,80.0,60.3,30.17,NE,42,5.0,9.0,51,0.00,,,0.00,VWS V14.01,2013-04-27 14:03:00,
2013-04-27 10:08:00,80.3,61.1,30.17,NNE,31,8.0,12.0,52,0.00,,,0.00,VWS V14.01,2013-04-27 14:08:00,
2013-04-27 10:13:00,80.5,61.8,30.17,East,94,3.0,13.0,53,0.00,,,0.00,VWS V14.01,2013-04-27 14:13:00,
2013-04-27 10:18:00,80.7,62.5,30.17,NE,42,4.0,6.0,54,0.00,,,0.00,VWS V14.01,2013-04-27 14:18:00,
2013-04-27 10:23:00,81.0,61.7,30.17,North,350,8.0,9.0,52,0.00,,,0.00,VWS V14.01,2013-04-27 14:23:00,
2013-04-27 10:28:00,80.9,62.7,30.17,ENE,64,9.0,12.0,54,0.00,,,0.00,VWS V14.01,2013-04-27 14:28:00,
2013-04-27 10:33:00,81.0,61.2,30.17,NW,326,4.0,8.0,51,0.00,,,0.00,VWS V14.01,2013-04-27 14:33:00,
2013-04-27 10:38:00,80.7,61.5,30.17,NE,42,3.0,12.0,52,0.00,,,0.00,VWS V14.01,2013-04-27 14:38:00,
2013-04-27 10:43:00,80.5,61.8,30.16,East,82,7.0,13.0,53,0.00,,,0.00,VWS V14.01,2013-04-27 14:43:00,
2013-04-27 10:48:00,80.9,61.6,30.17,ENE,73,3.0,11.0,52,0.00,,,0.00,VWS V14.01,2013-04-27 14:48:00,
2013-04-27 10:53:00,81.3,62.5,30.17,East,85,2.0,12.0,53,0.00,,,0.00,VWS V14.01,2013-04-27 14:53:00,
2013-04-27 10:58:00,81.6,62.8,30.17,NW,309,4.0,12.0,53,0.00,,,0.00,VWS V14.01,2013-04-27 14:58:00,
2013-04-27 11:03:00,81.7,60.7,30.17,East,99,2.0,12.0,49,0.00,,,0.00,VWS V14.01,2013-04-27 15:03:00,
2013-04-27 11:08:00,81.8,61.9,30.17,NE,48,6.0,12.0,51,0.00,,,0.00,VWS V14.01,2013-04-27 15:08:00,
2013-04-27 11:13:00,81.8,63.0,30.17,NE,51,2.0,12.0,53,0.00,,,0.00,VWS V14.01,2013-04-27 15:13:00,
2013-04-27 11:18:00,82.0,62.1,30.17,East,85,5.0,11.0,51,0.00,,,0.00,VWS V14.01,2013-04-27 15:18:00,
2013-04-27 11:23:00,81.8,61.9,30.17,ENE,68,5.0,14.0,51,0.00,,,0.00,VWS V14.01,2013-04-27 15:23:00,
2013-04-27 11:28:00,81.6,61.7,30.17,ESE,104,1.0,14.0,51,0.00,,,0.00,VWS V14.01,2013-04-27 15:28:00,
2013-04-27 11:33:00,82.3,60.7,30.17,ENE,61,2.0,10.0,48,0.00,,,0.00,VWS V14.01,2013-04-27 15:33:00,
2013-04-27 11:38:00,82.3,61.2,30.17,NNE,16,3.0,10.0,49,0.00,,,0.00,VWS V14.01,2013-04-27 15:38:00,
2013-04-27 11:43:00,82.6,62.1,30.17,ENE,62,2.0,15.0,50,0.00,,,0.00,VWS V14.01,2013-04-27 15:43:00,
2013-04-27 11:48:00,82.4,62.5,30.17,NE,53,4.0,9.0,51,0.00,,,0.00,VWS V14.01,2013-04-27 15:48:00,
2013-04-27 11:53:00,82.8,61.7,30.17,NNE,15,8.0,10.0,49,0.00,,,0.00,VWS V14.01,2013-04-27 15:53:00,
2013-04-27 11:58:00,82.8,61.1,30.17,SW,215,5.0,13.0,48,0.00,,,0.00,VWS V14.01,2013-04-27 15:58:00,
2013-04-27 12:03:00,83.6,63.0,30.17,ENE,72,8.0,8.0,50,0.00,,,0.00,VWS V14.01,2013-04-27 16:03:00,
2013-04-27 12:08:00,83.0,62.5,30.17,ESE,113,5.0,13.0,50,0.00,,,0.00,VWS V14.01,2013-04-27 16:08:00,
2013-04-27 12:13:00,83.0,62.5,30.17,ENE,68,4.0,13.0,50,0.00,,,0.00,VWS V14.01,2013-04-27 16:13:00,
2013-04-27 12:18:00,83.7,62.5,30.17,ESE,102,2.0,11.0,49,0.00,,,0.00,VWS V14.01,2013-04-27 16:18:00,
2013-04-27 12:23:00,83.3,63.3,30.17,SE,131,1.0,11.0,51,0.00,,,0.00,VWS V14.01,2013-04-27 16:23:00,
2013-04-27 12:28:00,84.1,62.3,30.17,NNW,332,3.0,11.0,48,0.00,,,0.00,VWS V14.01,2013-04-27 16:28:00,
2013-04-27 12:33:00,83.8,63.8,30.17,ENE,76,3.0,9.0,51,0.00,,,0.00,VWS V14.01,2013-04-27 16:33:00,
2013-04-27 12:38:00,84.2,63.0,30.16,NE,56,3.0,9.0,49,0.00,,,0.00,VWS V14.01,2013-04-27 16:38:00,
2013-04-27 12:43:00,84.3,63.1,30.16,East,88,6.0,12.0,49,0.00,,,0.00,VWS V14.01,2013-04-27 16:43:00,
2013-04-27 12:48:00,84.7,61.0,30.16,SE,134,1.0,7.0,45,0.00,,,0.00,VWS V14.01,2013-04-27 16:48:00,
2013-04-27 12:53:00,84.8,63.0,30.16,ESE,115,4.0,11.0,48,0.00,,,0.00,VWS V14.01,2013-04-27 16:53:00,
2013-04-27 12:58:00,84.5,63.8,30.16,East,83,5.0,11.0,50,0.00,,,0.00,VWS V14.01,2013-04-27 16:58:00,
2013-04-27 13:03:00,83.9,63.3,30.16,ENE,75,7.0,9.0,50,0.00,,,0.00,VWS V14.01,2013-04-27 17:03:00,
2013-04-27 13:08:00,84.3,62.5,30.16,NNW,348,4.0,10.0,48,0.00,,,0.00,VWS V14.01,2013-04-27 17:08:00,
2013-04-27 13:13:00,84.5,63.3,30.16,ENE,63,5.0,11.0,49,0.00,,,0.00,VWS V14.01,2013-04-27 17:13:00,
2013-04-27 13:18:00,84.7,62.9,30.16,NNE,15,3.0,10.0,48,0.00,,,0.00,VWS V14.01,2013-04-27 17:18:00,
2013-04-27 13:23:00,85.1,62.6,30.16,East,81,6.0,10.0,47,0.00,,,0.00,VWS V14.01,2013-04-27 17:23:00,
2013-04-27 13:28:00,85.5,63.6,30.16,East,88,5.0,10.0,48,0.00,,,0.00,VWS V14.01,2013-04-27 17:28:00,
2013-04-27 13:33:00,85.5,63.0,30.16,SE,130,1.0,7.0,47,0.00,,,0.00,VWS V14.01,2013-04-27 17:33:00,
2013-04-27 13:38:00,84.9,62.4,30.16,NNE,28,2.0,10.0,47,0.00,,,0.00,VWS V14.01,2013-04-27 17:38:00,
2013-04-27 13:43:00,84.9,63.0,30.16,SE,140,2.0,10.0,48,0.00,,,0.00,VWS V14.01,2013-04-27 17:43:00,
2013-04-27 13:48:00,85.3,62.2,30.15,ENE,76,4.0,9.0,46,0.00,,,0.00,VWS V14.01,2013-04-27 17:48:00,
2013-04-27 13:53:00,86.0,61.6,30.15,ENE,65,9.0,13.0,44,0.00,,,0.00,VWS V14.01,2013-04-27 17:53:00,
2013-04-27 13:58:00,85.5,62.4,30.15,NNE,13,7.0,13.0,46,0.00,,,0.00,VWS V14.01,2013-04-27 17:58:00,
2013-04-27 14:03:00,84.8,62.3,30.15,East,82,3.0,8.0,47,0.00,,,0.00,VWS V14.01,2013-04-27 18:03:00,
2013-04-27 14:08:00,85.2,62.7,30.15,East,85,9.0,11.0,47,0.00,,,0.00,VWS V14.01,2013-04-27 18:08:00,
2013-04-27 14:13:00,85.7,63.8,30.15,ENE,68,3.0,11.0,48,0.00,,,0.00,VWS V14.01,2013-04-27 18:13:00,
2013-04-27 14:18:00,85.8,62.7,30.15,SSE,159,1.0,8.0,46,0.00,,,0.00,VWS V14.01,2013-04-27 18:18:00,
2013-04-27 14:23:00,86.1,61.7,30.15,ENE,63,5.0,10.0,44,0.00,,,0.00,VWS V14.01,2013-04-27 18:23:00,
2013-04-27 14:28:00,85.2,63.3,30.14,NNE,28,7.0,10.0,48,0.00,,,0.00,VWS V14.01,2013-04-27 18:28:00,
2013-04-27 14:33:00,86.1,62.3,30.14,North,10,2.0,5.0,45,0.00,,,0.00,VWS V14.01,2013-04-27 18:33:00,
2013-04-27 14:38:00,86.0,63.4,30.14,NE,34,7.0,14.0,47,0.00,,,0.00,VWS V14.01,2013-04-27 18:38:00,
2013-04-27 14:43:00,85.8,63.9,30.14,East,97,6.0,14.0,48,0.00,,,0.00,VWS V14.01,2013-04-27 18:43:00,
2013-04-27 14:48:00,85.6,63.7,30.14,North,5,1.0,7.0,48,0.00,,,0.00,VWS V14.01,2013-04-27 18:48:00,
2013-04-27 14:53:00,86.8,62.9,30.14,NNE,20,5.0,9.0,45,0.00,,,0.00,VWS V14.01,2013-04-27 18:53:00,
2013-04-27 14:58:00,87.2,63.9,30.14,South,169,4.0,9.0,46,0.00,,,0.00,VWS V14.01,2013-04-27 18:58:00,
2013-04-27 15:03:00,85.9,63.3,30.13,ENE,61,11.0,11.0,47,0.00,,,0.00,VWS V14.01,2013-04-27 19:03:00,
2013-04-27 15:08:00,85.2,62.7,30.13,NNE,26,5.0,11.0,47,0.00,,,0.00,VWS V14.01,2013-04-27 19:08:00,
2013-04-27 15:13:00,85.5,63.6,30.13,NNE,28,6.0,11.0,48,0.00,,,0.00,VWS V14.01,2013-04-27 19:13:00,
2013-04-27 15:18:00,86.1,62.9,30.13,NNE,13,2.0,8.0,46,0.00,,,0.00,VWS V14.01,2013-04-27 19:18:00,
2013-04-27 15:23:00,85.8,63.9,30.12,ESE,105,3.0,8.0,48,0.00,,,0.00,VWS V14.01,2013-04-27 19:23:00,
2013-04-27 15:28:00,86.7,62.8,30.12,ENE,66,2.0,10.0,45,0.00,,,0.00,VWS V14.01,2013-04-27 19:28:00,
2013-04-27 15:33:00,87.2,64.5,30.12,SSE,153,1.0,3.0,47,0.00,,,0.00,VWS V14.01,2013-04-27 19:33:00,
2013-04-27 15:38:00,86.9,63.7,30.11,SE,137,0.0,7.0,46,0.00,,,0.00,VWS V14.01,2013-04-27 19:38:00,
2013-04-27 15:43:00,86.9,61.7,30.12,NE,52,1.0,9.0,43,0.00,,,0.00,VWS V14.01,2013-04-27 19:43:00,
2013-04-27 15:48:00,85.1,62.6,30.11,East,94,2.0,8.0,47,0.00,,,0.00,VWS V14.01,2013-04-27 19:48:00,
2013-04-27 15:53:00,85.7,64.4,30.11,East,88,0.0,9.0,49,0.00,,,0.00,VWS V14.01,2013-04-27 19:53:00,
2013-04-27 15:58:00,85.0,63.1,30.11,NE,42,3.0,11.0,48,0.00,,,0.00,VWS V14.01,2013-04-27 19:58:00,
2013-04-27 16:03:00,85.5,63.6,30.11,East,99,1.0,8.0,48,0.00,,,0.00,VWS V14.01,2013-04-27 20:03:00,
2013-04-27 16:08:00,85.0,63.1,30.11,NNE,24,7.0,14.0,48,0.00,,,0.00,VWS V14.01,2013-04-27 20:08:00,
2013-04-27 16:13:00,84.1,63.5,30.11,SE,125,2.0,14.0,50,0.00,,,0.00,VWS V14.01,2013-04-27 20:13:00,
2013-04-27 16:18:00,85.3,62.8,30.11,NE,55,0.0,7.0,47,0.00,,,0.00,VWS V14.01,2013-04-27 20:18:00,
2013-04-27 16:23:00,85.6,63.7,30.10,ENE,61,9.0,9.0,48,0.00,,,0.00,VWS V14.01,2013-04-27 20:23:00,
2013-04-27 16:28:00,85.6,64.3,30.10,East,94,2.0,9.0,49,0.00,,,0.00,VWS V14.01,2013-04-27 20:28:00,
2013-04-27 16:33:00,86.5,65.1,30.10,ESE,119,3.0,8.0,49,0.00,,,0.00,VWS V14.01,2013-04-27 20:33:00,
2013-04-27 16:38:00,86.5,63.9,30.10,East,98,0.0,8.0,47,0.00,,,0.00,VWS V14.01,2013-04-27 20:38:00,
2013-04-27 16:43:00,86.9,64.3,30.10,ENE,73,1.0,10.0,47,0.00,,,0.00,VWS V14.01,2013-04-27 20:43:00,
2013-04-27 16:48:00,85.9,62.7,30.10,ENE,71,7.0,9.0,46,0.00,,,0.00,VWS V14.01,2013-04-27 20:48:00,
2013-04-27 16:53:00,85.7,64.4,30.10,ENE,62,2.0,11.0,49,0.00,,,0.00,VWS V14.01,2013-04-27 20:53:00,
2013-04-27 16:58:00,85.3,64.0,30.10,SE,131,1.0,11.0,49,0.00,,,0.00,VWS V14.01,2013-04-27 20:58:00,
2013-04-27 17:03:00,85.0,62.5,30.10,NNE,15,2.0,3.0,47,0.00,,,0.00,VWS V14.01,2013-04-27 21:03:00,
2013-04-27 17:08:00,85.6,63.7,30.10,East,82,3.0,5.0,48,0.00,,,0.00,VWS V14.01,2013-04-27 21:08:00,
2013-04-27 17:13:00,86.1,64.7,30.10,NNE,17,1.0,10.0,49,0.00,,,0.00,VWS V14.01,2013-04-27 21:13:00,
2013-04-27 17:18:00,85.5,63.6,30.09,SE,128,2.0,7.0,48,0.00,,,0.00,VWS V14.01,2013-04-27 21:18:00,
2013-04-27 17:23:00,84.6,63.9,30.09,NE,39,4.0,11.0,50,0.00,,,0.00,VWS V14.01,2013-04-27 21:23:00,
2013-04-27 17:28:00,84.4,63.8,30.09,North,360,1.0,11.0,50,0.00,,,0.00,VWS V14.01,2013-04-27 21:28:00,
2013-04-27 17:33:00,84.9,63.6,30.09,NE,36,1.0,9.0,49,0.00,,,0.00,VWS V14.01,2013-04-27 21:33:00,
2013-04-27 17:38:00,85.3,65.1,30.09,NNE,25,10.0,13.0,51,0.00,,,0.00,VWS V14.01,2013-04-27 21:38:00,
2013-04-27 17:43:00,84.5,64.4,30.09,NE,54,4.0,13.0,51,0.00,,,0.00,VWS V14.01,2013-04-27 21:43:00,
2013-04-27 17:48:00,83.4,64.5,30.09,West,277,2.0,7.0,53,0.00,,,0.00,VWS V14.01,2013-04-27 21:48:00,
2013-04-27 17:53:00,83.1,63.7,30.09,East,87,2.0,8.0,52,0.00,,,0.00,VWS V14.01,2013-04-27 21:53:00,
2013-04-27 17:58:00,82.6,63.8,30.09,ENE,57,2.0,8.0,53,0.00,,,0.00,VWS V14.01,2013-04-27 21:58:00,
2013-04-27 18:03:00,83.0,64.1,30.08,East,97,0.0,5.0,53,0.00,,,0.00,VWS V14.01,2013-04-27 22:03:00,
2013-04-27 18:08:00,83.3,64.9,30.08,ESE,120,4.0,7.0,54,0.00,,,0.00,VWS V14.01,2013-04-27 22:08:00,
2013-04-27 18:13:00,83.2,65.9,30.08,ENE,65,9.0,12.0,56,0.00,,,0.00,VWS V14.01,2013-04-27 22:13:00,
2013-04-27 18:18:00,82.5,64.7,30.09,East,84,3.0,9.0,55,0.00,,,0.00,VWS V14.01,2013-04-27 22:18:00,
2013-04-27 18:23:00,81.3,64.6,30.09,East,94,3.0,9.0,57,0.00,,,0.00,VWS V14.01,2013-04-27 22:23:00,
2013-04-27 18:28:00,80.9,65.2,30.09,SE,142,2.0,9.0,59,0.00,,,0.00,VWS V14.01,2013-04-27 22:28:00,
2013-04-27 18:33:00,80.8,65.6,30.09,ENE,68,4.0,11.0,60,0.00,,,0.00,VWS V14.01,2013-04-27 22:33:00,
2013-04-27 18:38:00,80.4,66.2,30.09,East,96,3.0,11.0,62,0.00,,,0.00,VWS V14.01,2013-04-27 22:38:00,
2013-04-27 18:43:00,80.5,66.3,30.09,NE,49,0.0,11.0,62,0.00,,,0.00,VWS V14.01,2013-04-27 22:43:00,
2013-04-27 18:48:00,80.7,65.1,30.08,NNE,29,5.0,12.0,59,0.00,,,0.00,VWS V14.01,2013-04-27 22:48:00,
2013-04-27 18:53:00,80.3,66.1,30.09,NE,38,0.0,12.0,62,0.00,,,0.00,VWS V14.01,2013-04-27 22:53:00,
2013-04-27 18:58:00,80.0,66.3,30.09,NE,42,2.0,12.0,63,0.00,,,0.00,VWS V14.01,2013-04-27 22:58:00,
2013-04-27 19:03:00,79.4,65.7,30.08,East,83,5.0,8.0,63,0.00,,,0.00,VWS V14.01,2013-04-27 23:03:00,
2013-04-27 19:08:00,78.9,66.2,30.08,ENE,68,2.0,9.0,65,0.00,,,0.00,VWS V14.01,2013-04-27 23:08:00,
2013-04-27 19:13:00,78.8,66.5,30.08,NNE,16,1.0,9.0,66,0.00,,,0.00,VWS V14.01,2013-04-27 23:13:00,
2013-04-27 19:18:00,78.5,66.2,30.08,ENE,59,2.0,7.0,66,0.00,,,0.00,VWS V14.01,2013-04-27 23:18:00,
2013-04-27 19:23:00,78.2,65.9,30.08,NE,55,5.0,9.0,66,0.00,,,0.00,VWS V14.01,2013-04-27 23:23:00,
2013-04-27 19:28:00,78.2,65.9,30.09,ENE,65,9.0,9.0,66,0.00,,,0.00,VWS V14.01,2013-04-27 23:28:00,
2013-04-27 19:33:00,78.1,66.3,30.09,NE,53,3.0,4.0,67,0.00,,,0.00,VWS V14.01,2013-04-27 23:33:00,
2013-04-27 19:38:00,78.1,66.3,30.09,NE,55,2.0,8.0,67,0.00,,,0.00,VWS V14.01,2013-04-27 23:38:00,
2013-04-27 19:43:00,77.9,66.5,30.09,North,355,4.0,8.0,68,0.00,,,0.00,VWS V14.01,2013-04-27 23:43:00,
2013-04-27 19:48:00,77.7,66.7,30.09,East,93,2.0,3.0,69,0.00,,,0.00,VWS V14.01,2013-04-27 23:48:00,
2013-04-27 19:53:00,77.6,66.6,30.08,NE,51,1.0,6.0,69,0.00,,,0.00,VWS V14.01,2013-04-27 23:53:00,
2013-04-27 19:58:00,77.4,66.9,30.09,NE,49,1.0,7.0,70,0.00,,,0.00,VWS V14.01,2013-04-27 23:58:00,
2013-04-27 20:03:00,77.3,66.8,30.09,NE,42,3.0,6.0,70,0.00,,,0.00,VWS V14.01,2013-04-28 00:03:00,
2013-04-27 20:08:00,77.2,66.7,30.09,NE,40,0.0,6.0,70,0.00,,,0.00,VWS V14.01,2013-04-28 00:08:00,
2013-04-27 20:13:00,77.1,67.0,30.09,ENE,63,0.0,8.0,71,0.00,,,0.00,VWS V14.01,2013-04-28 00:13:00,
2013-04-27 20:18:00,77.0,66.9,30.09,ENE,77,0.0,7.0,71,0.00,,,0.00,VWS V14.01,2013-04-28 00:18:00,
2013-04-27 20:23:00,77.0,67.3,30.09,NE,37,2.0,7.0,72,0.00,,,0.00,VWS V14.01,2013-04-28 00:23:00,
2013-04-27 20:28:00,76.8,67.1,30.09,South,177,3.0,8.0,72,0.00,,,0.00,VWS V14.01,2013-04-28 00:28:00,
2013-04-27 20:33:00,76.8,67.5,30.10,East,88,2.0,3.0,73,0.00,,,0.00,VWS V14.01,2013-04-28 00:33:00,